Time,TemperatureF,DewpointF,PressureIn,WindDirection,WindDirectionDegrees,WindSpeedMPH,WindSpeedGustMPH,Humidity,HourlyPrecipIn,Conditions,Clouds,dailyrainin,SoftwareType,DateUTC
2013-12-04 00:01:00,52.8,46.5,29.97,NE,52,0.0,0.0,79,0.00,,,0.00,WUHU216DAVISVP2,2013-12-04 05:01:00,
2013-12-04 00:06:00,52.6,46.3,29.97,NE,52,0.0,0.0,79,0.00,,,0.00,WUHU216DAVISVP2,2013-12-04 05:06:00,
2013-12-04 00:11:00,52.6,46.6,29.97,NE,52,0.0,0.0,80,0.00,,,0.00,WUHU216DAVISVP2,2013-12-04 05:11:00,
2013-12-04 00:16:00,52.6,46.6,29.97,NE,52,0.0,0.0,80,0.01,,,0.01,WUHU216DAVISVP2,2013-12-04 05:16:00,
2013-12-04 00:21:00,52.5,46.5,29.97,NE,52,0.0,0.0,80,0.01,,,0.01,WUHU216DAVISVP2,2013-12-04 05:21:00,
2013-12-04 00:26:00,52.5,46.9,29.97,NE,52,0.0,0.0,81,0.01,,,0.01,WUHU216DAVISVP2,2013-12-04 05:26:00,
2013-12-04 00:31:00,52.5,47.2,29.97,NE,52,0.0,0.0,82,0.01,,,0.01,WUHU216DAVISVP2,2013-12-04 05:31:00,
2013-12-04 00:36:00,52.5,47.2,29.97,NE,52,0.0,0.0,82,0.01,,,0.01,WUHU216DAVISVP2,2013-12-04 05:36:00,
2013-12-04 00:41:00,52.5,47.2,29.97,NE,52,0.0,0.0,82,0.02,,,0.02,WUHU216DAVISVP2,2013-12-04 05:41:00,
2013-12-04 00:46:00,52.3,47.0,29.97,NE,52,0.0,0.0,82,0.02,,,0.02,WUHU216DAVISVP2,2013-12-04 05:46:00,
2013-12-04 00:51:00,52.2,46.9,29.96,NE,52,0.0,0.0,82,0.02,,,0.02,WUHU216DAVISVP2,2013-12-04 05:51:00,
2013-12-04 00:56:00,52.2,46.9,29.96,NE,52,0.0,0.0,82,0.02,,,0.02,WUHU216DAVISVP2,2013-12-04 05:56:00,
2013-12-04 01:01:00,52.0,47.0,29.96,NE,52,0.0,0.0,83,0.02,,,0.02,WUHU216DAVISVP2,2013-12-04 06:01:00,
2013-12-04 01:06:00,52.0,47.0,29.96,NE,52,0.0,0.0,83,0.02,,,0.02,WUHU216DAVISVP2,2013-12-04 06:06:00,
2013-12-04 01:11:00,52.0,47.0,29.96,NE,52,0.0,0.0,83,0.02,,,0.02,WUHU216DAVISVP2,2013-12-04 06:11:00,
2013-12-04 01:16:00,52.0,47.0,29.96,NE,52,0.0,0.0,83,0.01,,,0.02,WUHU216DAVISVP2,2013-12-04 06:16:00,
2013-12-04 01:21:00,52.0,47.3,29.95,NE,52,0.0,0.0,84,0.01,,,0.02,WUHU216DAVISVP2,2013-12-04 06:21:00,
2013-12-04 01:26:00,52.0,47.3,29.95,NE,52,0.0,0.0,84,0.01,,,0.02,WUHU216DAVISVP2,2013-12-04 06:26:00,
2013-12-04 01:31:00,52.0,47.3,29.95,NE,52,0.0,0.0,84,0.01,,,0.02,WUHU216DAVISVP2,2013-12-04 06:31:00,
2013-12-04 01:36:00,52.0,47.3,29.95,NE,52,0.0,0.0,84,0.01,,,0.02,WUHU216DAVISVP2,2013-12-04 06:36:00,
2013-12-04 01:41:00,52.0,47.6,29.95,NE,52,0.0,0.0,85,0.00,,,0.02,WUHU216DAVISVP2,2013-12-04 06:41:00,
2013-12-04 01:46:00,52.0,47.6,29.95,NE,52,0.0,0.0,85,0.00,,,0.02,WUHU216DAVISVP2,2013-12-04 06:46:00,
2013-12-04 01:51:00,52.0,47.6,29.96,NE,52,0.0,0.0,85,0.00,,,0.02,WUHU216DAVISVP2,2013-12-04 06:51:00,
2013-12-04 01:56:00,52.0,47.6,29.96,NE,52,0.0,0.0,85,0.00,,,0.02,WUHU216DAVISVP2,2013-12-04 06:56:00,
2013-12-04 02:01:00,52.0,47.6,29.96,NE,52,0.0,0.0,85,0.00,,,0.02,WUHU216DAVISVP2,2013-12-04 07:01:00,
2013-12-04 02:06:00,52.0,47.6,29.96,NE,52,0.0,0.0,85,0.00,,,0.02,WUHU216DAVISVP2,2013-12-04 07:06:00,
2013-12-04 02:11:00,52.0,47.6,29.96,NE,52,0.0,0.0,85,0.00,,,0.02,WUHU216DAVISVP2,2013-12-04 07:11:00,
2013-12-04 02:16:00,52.0,47.6,29.96,NE,52,0.0,0.0,85,0.00,,,0.02,WUHU216DAVISVP2,2013-12-04 07:16:00,
2013-12-04 02:21:00,52.2,47.8,29.96,NE,52,0.0,0.0,85,0.00,,,0.02,WUHU216DAVISVP2,2013-12-04 07:21:00,
2013-12-04 02:26:00,52.2,47.8,29.96,NE,52,0.0,0.0,85,0.00,,,0.02,WUHU216DAVISVP2,2013-12-04 07:26:00,
2013-12-04 02:31:00,52.2,47.8,29.96,NE,52,0.0,0.0,85,0.00,,,0.02,WUHU216DAVISVP2,2013-12-04 07:31:00,
2013-12-04 02:36:00,52.3,47.9,29.97,NE,52,0.0,0.0,85,0.00,,,0.02,WUHU216DAVISVP2,2013-12-04 07:36:00,
2013-12-04 02:41:00,52.3,47.9,29.97,NE,52,0.0,0.0,85,0.00,,,0.02,WUHU216DAVISVP2,2013-12-04 07:41:00,
2013-12-04 02:46:00,52.3,47.9,29.97,NE,52,0.0,0.0,85,0.00,,,0.02,WUHU216DAVISVP2,2013-12-04 07:46:00,
2013-12-04 02:51:00,52.5,48.1,29.98,NE,52,0.0,0.0,85,0.00,,,0.02,WUHU216DAVISVP2,2013-12-04 07:51:00,
2013-12-04 02:56:00,52.3,47.9,29.98,NE,52,0.0,0.0,85,0.00,,,0.02,WUHU216DAVISVP2,2013-12-04 07:56:00,
2013-12-04 03:01:00,52.5,48.4,29.98,NE,52,0.0,0.0,86,0.00,,,0.02,WUHU216DAVISVP2,2013-12-04 08:01:00,
2013-12-04 03:06:00,52.5,48.4,29.98,NE,52,0.0,0.0,86,0.00,,,0.02,WUHU216DAVISVP2,2013-12-04 08:06:00,
2013-12-04 03:11:00,52.6,48.5,29.98,NE,52,0.0,0.0,86,0.00,,,0.02,WUHU216DAVISVP2,2013-12-04 08:11:00,
2013-12-04 03:16:00,52.5,48.4,29.98,NE,52,0.0,0.0,86,0.00,,,0.02,WUHU216DAVISVP2,2013-12-04 08:16:00,
2013-12-04 03:21:00,52.5,48.4,29.98,NE,52,0.0,0.0,86,0.00,,,0.02,WUHU216DAVISVP2,2013-12-04 08:21:00,
2013-12-04 03:26:00,52.6,48.5,29.98,NE,52,0.0,0.0,86,0.00,,,0.02,WUHU216DAVISVP2,2013-12-04 08:26:00,
2013-12-04 03:31:00,52.6,48.5,29.98,NE,52,0.0,0.0,86,0.00,,,0.02,WUHU216DAVISVP2,2013-12-04 08:31:00,
2013-12-04 03:36:00,52.8,48.7,29.98,NE,52,0.0,0.0,86,0.00,,,0.02,WUHU216DAVISVP2,2013-12-04 08:36:00,
2013-12-04 03:41:00,52.8,48.7,29.98,NE,52,0.0,0.0,86,0.00,,,0.02,WUHU216DAVISVP2,2013-12-04 08:41:00,
2013-12-04 03:46:00,52.8,48.7,29.98,NE,52,0.0,0.0,86,0.00,,,0.02,WUHU216DAVISVP2,2013-12-04 08:46:00,
2013-12-04 03:51:00,52.9,49.1,29.98,NE,52,0.0,0.0,87,0.00,,,0.02,WUHU216DAVISVP2,2013-12-04 08:51:00,
2013-12-04 03:56:00,52.8,48.7,29.98,NE,52,0.0,0.0,86,0.00,,,0.02,WUHU216DAVISVP2,2013-12-04 08:56:00,
2013-12-04 04:01:00,53.1,49.3,29.98,NE,52,0.0,0.0,87,0.00,,,0.02,WUHU216DAVISVP2,2013-12-04 09:01:00,
2013-12-04 04:07:00,52.9,49.1,29.97,NE,52,0.0,0.0,87,0.00,,,0.02,WUHU216DAVISVP2,2013-12-04 09:07:00,
2013-12-04 04:12:00,53.1,49.3,29.97,NE,52,0.0,0.0,87,0.00,,,0.02,WUHU216DAVISVP2,2013-12-04 09:12:00,
2013-12-04 04:17:00,53.1,49.3,29.97,NE,52,0.0,0.0,87,0.00,,,0.02,WUHU216DAVISVP2,2013-12-04 09:17:00,
2013-12-04 04:22:00,53.1,49.3,29.98,NE,52,0.0,0.0,87,0.00,,,0.02,WUHU216DAVISVP2,2013-12-04 09:22:00,
2013-12-04 04:27:00,53.1,49.3,29.98,NE,52,0.0,0.0,87,0.00,,,0.02,WUHU216DAVISVP2,2013-12-04 09:27:00,
2013-12-04 04:32:00,53.2,49.4,29.98,NE,52,0.0,0.0,87,0.00,,,0.02,WUHU216DAVISVP2,2013-12-04 09:32:00,
2013-12-04 04:37:00,53.2,49.4,29.98,NE,52,0.0,0.0,87,0.00,,,0.02,WUHU216DAVISVP2,2013-12-04 09:37:00,
2013-12-04 04:42:00,53.3,49.5,29.98,NE,52,0.0,0.0,87,0.00,,,0.02,WUHU216DAVISVP2,2013-12-04 09:42:00,
2013-12-04 04:47:00,53.3,49.5,29.98,NE,52,0.0,0.0,87,0.00,,,0.02,WUHU216DAVISVP2,2013-12-04 09:47:00,
2013-12-04 04:52:00,53.3,49.5,29.98,NE,52,0.0,0.0,87,0.00,,,0.02,WUHU216DAVISVP2,2013-12-04 09:52:00,
2013-12-04 04:57:00,53.3,49.5,29.98,NE,52,0.0,0.0,87,0.00,,,0.02,WUHU216DAVISVP2,2013-12-04 09:57:00,
2013-12-04 05:02:00,53.3,49.5,29.98,NE,52,0.0,0.0,87,0.00,,,0.02,WUHU216DAVISVP2,2013-12-04 10:02:00,
2013-12-04 05:07:00,53.3,49.5,29.98,NE,52,0.0,0.0,87,0.00,,,0.02,WUHU216DAVISVP2,2013-12-04 10:07:00,
2013-12-04 05:12:00,53.5,50.0,29.98,NE,52,0.0,0.0,88,0.00,,,0.02,WUHU216DAVISVP2,2013-12-04 10:12:00,
2013-12-04 05:17:00,53.5,50.0,29.98,NE,52,0.0,0.0,88,0.00,,,0.02,WUHU216DAVISVP2,2013-12-04 10:17:00,
2013-12-04 05:22:00,53.5,50.0,29.98,NE,52,0.0,0.0,88,0.00,,,0.02,WUHU216DAVISVP2,2013-12-04 10:22:00,
2013-12-04 05:27:00,53.6,50.1,29.98,NE,52,0.0,0.0,88,0.00,,,0.02,WUHU216DAVISVP2,2013-12-04 10:27:00,
2013-12-04 05:32:00,53.6,50.1,29.98,NE,52,0.0,0.0,88,0.00,,,0.02,WUHU216DAVISVP2,2013-12-04 10:32:00,
2013-12-04 05:37:00,53.8,50.3,29.98,NE,52,0.0,0.0,88,0.00,,,0.02,WUHU216DAVISVP2,2013-12-04 10:37:00,
2013-12-04 05:42:00,53.8,50.3,29.98,NE,52,0.0,0.0,88,0.00,,,0.02,WUHU216DAVISVP2,2013-12-04 10:42:00,
2013-12-04 05:47:00,53.8,50.3,29.98,NE,52,0.0,0.0,88,0.00,,,0.02,WUHU216DAVISVP2,2013-12-04 10:47:00,
2013-12-04 05:52:00,53.8,50.3,29.99,NE,52,0.0,0.0,88,0.00,,,0.02,WUHU216DAVISVP2,2013-12-04 10:52:00,
2013-12-04 05:57:00,53.8,50.3,29.99,NE,52,0.0,0.0,88,0.00,,,0.02,WUHU216DAVISVP2,2013-12-04 10:57:00,
2013-12-04 06:02:00,53.9,50.4,29.99,NE,52,0.0,0.0,88,0.00,,,0.02,WUHU216DAVISVP2,2013-12-04 11:02:00,
2013-12-04 06:07:00,53.8,50.3,29.99,NE,52,0.0,0.0,88,0.00,,,0.02,WUHU216DAVISVP2,2013-12-04 11:07:00,
2013-12-04 06:12:00,53.9,50.4,29.99,NE,52,0.0,0.0,88,0.00,,,0.02,WUHU216DAVISVP2,2013-12-04 11:12:00,
2013-12-04 06:17:00,53.9,50.4,29.99,NE,52,0.0,0.0,88,0.00,,,0.02,WUHU216DAVISVP2,2013-12-04 11:17:00,
2013-12-04 06:22:00,53.9,50.4,29.99,NE,52,0.0,0.0,88,0.00,,,0.02,WUHU216DAVISVP2,2013-12-04 11:22:00,
2013-12-04 06:27:00,53.9,50.4,29.99,NE,52,0.0,0.0,88,0.00,,,0.02,WUHU216DAVISVP2,2013-12-04 11:27:00,
2013-12-04 06:32:00,53.9,50.4,29.99,NE,52,0.0,0.0,88,0.00,,,0.02,WUHU216DAVISVP2,2013-12-04 11:32:00,
2013-12-04 06:37:00,53.9,50.4,29.99,NE,52,0.0,0.0,88,0.00,,,0.02,WUHU216DAVISVP2,2013-12-04 11:37:00,
2013-12-04 06:42:00,54.1,50.6,29.99,NE,52,0.0,0.0,88,0.00,,,0.02,WUHU216DAVISVP2,2013-12-04 11:42:00,
2013-12-04 06:47:00,54.1,50.6,29.99,NE,52,0.0,0.0,88,0.00,,,0.02,WUHU216DAVISVP2,2013-12-04 11:47:00,
2013-12-04 06:52:00,54.1,50.6,30.00,NE,52,0.0,0.0,88,0.00,,,0.02,WUHU216DAVISVP2,2013-12-04 11:52:00,
2013-12-04 06:57:00,54.1,50.6,30.00,NE,52,0.0,0.0,88,0.00,,,0.02,WUHU216DAVISVP2,2013-12-04 11:57:00,
2013-12-04 07:02:00,54.1,50.6,30.00,NE,52,0.0,0.0,88,0.00,,,0.02,WUHU216DAVISVP2,2013-12-04 12:02:00,
2013-12-04 07:07:00,54.2,50.7,30.00,NE,52,0.0,0.0,88,0.00,,,0.02,WUHU216DAVISVP2,2013-12-04 12:07:00,
2013-12-04 07:12:00,54.2,50.7,30.00,NE,52,0.0,0.0,88,0.00,,,0.02,WUHU216DAVISVP2,2013-12-04 12:12:00,
2013-12-04 07:17:00,54.2,50.7,30.00,NE,52,0.0,0.0,88,0.00,,,0.02,WUHU216DAVISVP2,2013-12-04 12:17:00,
2013-12-04 07:22:00,54.4,50.9,30.00,NE,52,0.0,0.0,88,0.00,,,0.02,WUHU216DAVISVP2,2013-12-04 12:22:00,
2013-12-04 07:28:00,54.4,50.9,30.00,NE,52,0.0,0.0,88,0.00,,,0.02,WUHU216DAVISVP2,2013-12-04 12:28:00,
2013-12-04 07:33:00,54.4,51.2,30.00,NE,52,0.0,0.0,89,0.00,,,0.02,WUHU216DAVISVP2,2013-12-04 12:33:00,
2013-12-04 07:38:00,54.5,51.3,30.00,NE,52,0.0,0.0,89,0.00,,,0.02,WUHU216DAVISVP2,2013-12-04 12:38:00,
2013-12-04 07:43:00,54.5,51.0,30.00,NE,52,0.0,0.0,88,0.00,,,0.02,WUHU216DAVISVP2,2013-12-04 12:43:00,
2013-12-04 07:48:00,54.5,51.0,30.00,NE,52,0.0,0.0,88,0.00,,,0.02,WUHU216DAVISVP2,2013-12-04 12:48:00,
2013-12-04 07:53:00,54.8,51.6,30.01,NE,52,0.0,0.0,89,0.00,,,0.02,WUHU216DAVISVP2,2013-12-04 12:53:00,
2013-12-04 07:58:00,55.0,51.8,30.01,NE,52,0.0,0.0,89,0.00,,,0.02,WUHU216DAVISVP2,2013-12-04 12:58:00,
2013-12-04 08:03:00,55.1,51.9,30.01,NE,52,0.0,0.0,89,0.00,,,0.02,WUHU216DAVISVP2,2013-12-04 13:03:00,
2013-12-04 08:08:00,55.3,52.1,30.01,NE,52,0.0,0.0,89,0.00,,,0.02,WUHU216DAVISVP2,2013-12-04 13:08:00,
2013-12-04 08:13:00,55.4,52.2,30.01,NE,52,0.0,0.0,89,0.00,,,0.02,WUHU216DAVISVP2,2013-12-04 13:13:00,
2013-12-04 08:18:00,55.7,52.5,30.02,NE,52,0.0,0.0,89,0.00,,,0.02,WUHU216DAVISVP2,2013-12-04 13:18:00,
2013-12-04 08:23:00,55.7,52.5,30.02,NE,52,0.0,0.0,89,0.00,,,0.02,WUHU216DAVISVP2,2013-12-04 13:23:00,
2013-12-04 08:29:00,55.9,52.7,30.02,NE,52,0.0,0.0,89,0.00,,,0.02,WUHU216DAVISVP2,2013-12-04 13:29:00,
2013-12-04 08:34:00,55.9,52.7,30.02,NE,52,0.0,0.0,89,0.00,,,0.02,WUHU216DAVISVP2,2013-12-04 13:34:00,
2013-12-04 08:39:00,56.2,53.0,30.02,NE,52,0.0,0.0,89,0.00,,,0.02,WUHU216DAVISVP2,2013-12-04 13:39:00,
2013-12-04 08:44:00,56.3,53.1,30.02,NE,52,0.0,0.0,89,0.00,,,0.02,WUHU216DAVISVP2,2013-12-04 13:44:00,
2013-12-04 08:49:00,56.5,53.3,30.03,NE,52,0.0,0.0,89,0.00,,,0.02,WUHU216DAVISVP2,2013-12-04 13:49:00,
2013-12-04 08:54:00,56.6,53.4,30.03,NE,52,0.0,0.0,89,0.00,,,0.02,WUHU216DAVISVP2,2013-12-04 13:54:00,
2013-12-04 08:59:00,56.6,53.4,30.03,NE,52,0.0,0.0,89,0.00,,,0.02,WUHU216DAVISVP2,2013-12-04 13:59:00,
2013-12-04 09:04:00,56.9,53.7,30.03,NE,52,0.0,0.0,89,0.00,,,0.02,WUHU216DAVISVP2,2013-12-04 14:04:00,
2013-12-04 09:09:00,56.9,53.7,30.03,NE,52,0.0,0.0,89,0.00,,,0.02,WUHU216DAVISVP2,2013-12-04 14:09:00,
2013-12-04 09:14:00,57.2,54.0,30.03,NE,52,0.0,0.0,89,0.00,,,0.02,WUHU216DAVISVP2,2013-12-04 14:14:00,
2013-12-04 09:19:00,57.0,53.8,30.03,NE,52,0.0,0.0,89,0.00,,,0.02,WUHU216DAVISVP2,2013-12-04 14:19:00,
2013-12-04 09:24:00,57.2,54.0,30.03,NE,52,0.0,0.0,89,0.00,,,0.02,WUHU216DAVISVP2,2013-12-04 14:24:00,
2013-12-04 09:29:00,57.5,54.3,30.03,NE,52,0.0,0.0,89,0.00,,,0.02,WUHU216DAVISVP2,2013-12-04 14:29:00,
2013-12-04 09:34:00,57.8,54.6,30.04,NE,52,0.0,0.0,89,0.00,,,0.02,WUHU216DAVISVP2,2013-12-04 14:34:00,
2013-12-04 09:39:00,57.6,54.1,30.04,NE,52,0.0,0.0,88,0.00,,,0.02,WUHU216DAVISVP2,2013-12-04 14:39:00,
2013-12-04 09:44:00,57.8,54.2,30.04,NE,52,0.0,0.0,88,0.00,,,0.02,WUHU216DAVISVP2,2013-12-04 14:44:00,
2013-12-04 09:49:00,57.8,54.2,30.04,NE,52,0.0,0.0,88,0.00,,,0.02,WUHU216DAVISVP2,2013-12-04 14:49:00,
2013-12-04 09:54:00,57.8,54.2,30.04,NE,52,0.0,0.0,88,0.00,,,0.02,WUHU216DAVISVP2,2013-12-04 14:54:00,
2013-12-04 09:59:00,57.8,54.2,30.04,NE,52,0.0,0.0,88,0.00,,,0.02,WUHU216DAVISVP2,2013-12-04 14:59:00,
2013-12-04 10:04:00,58.0,54.4,30.05,NE,52,0.0,0.0,88,0.00,,,0.02,WUHU216DAVISVP2,2013-12-04 15:04:00,
2013-12-04 10:09:00,57.8,54.2,30.05,NE,52,0.0,0.0,88,0.00,,,0.02,WUHU216DAVISVP2,2013-12-04 15:09:00,
2013-12-04 10:14:00,57.8,54.2,30.05,NE,52,0.0,0.0,88,0.00,,,0.02,WUHU216DAVISVP2,2013-12-04 15:14:00,
2013-12-04 10:19:00,57.8,54.2,30.05,NE,52,0.0,0.0,88,0.00,,,0.02,WUHU216DAVISVP2,2013-12-04 15:19:00,
2013-12-04 10:24:00,57.8,54.2,30.05,NE,52,0.0,0.0,88,0.00,,,0.02,WUHU216DAVISVP2,2013-12-04 15:24:00,
2013-12-04 10:29:00,57.8,54.2,30.05,NE,52,0.0,0.0,88,0.00,,,0.02,WUHU216DAVISVP2,2013-12-04 15:29:00,
2013-12-04 10:34:00,57.8,54.2,30.05,NE,52,0.0,0.0,88,0.00,,,0.02,WUHU216DAVISVP2,2013-12-04 15:34:00,
2013-12-04 10:39:00,57.8,54.2,30.05,NE,52,0.0,0.0,88,0.00,,,0.02,WUHU216DAVISVP2,2013-12-04 15:39:00,
2013-12-04 10:47:00,58.0,54.4,30.05,NE,52,0.0,0.0,88,0.00,,,0.02,WUHU216DAVISVP2,2013-12-04 15:47:00,
2013-12-04 10:52:00,58.0,54.4,30.05,NE,52,0.0,0.0,88,0.00,,,0.02,WUHU216DAVISVP2,2013-12-04 15:52:00,
2013-12-04 10:57:00,58.0,54.4,30.05,NE,52,0.0,0.0,88,0.00,,,0.02,WUHU216DAVISVP2,2013-12-04 15:57:00,
2013-12-04 11:02:00,58.0,54.4,30.05,NE,52,0.0,0.0,88,0.00,,,0.02,WUHU216DAVISVP2,2013-12-04 16:02:00,
2013-12-04 11:07:00,58.0,54.4,30.05,NE,52,0.0,0.0,88,0.00,,,0.02,WUHU216DAVISVP2,2013-12-04 16:07:00,
2013-12-04 11:12:00,58.1,54.5,30.05,NE,52,0.0,0.0,88,0.00,,,0.02,WUHU216DAVISVP2,2013-12-04 16:12:00,
2013-12-04 11:17:00,58.3,54.7,30.05,NE,52,0.0,0.0,88,0.00,,,0.02,WUHU216DAVISVP2,2013-12-04 16:17:00,
2013-12-04 11:22:00,58.3,54.7,30.04,NE,52,0.0,0.0,88,0.00,,,0.02,WUHU216DAVISVP2,2013-12-04 16:22:00,
2013-12-04 11:27:00,58.4,54.8,30.04,NE,52,0.0,0.0,88,0.00,,,0.02,WUHU216DAVISVP2,2013-12-04 16:27:00,
2013-12-04 11:32:00,58.4,54.8,30.04,SE,143,0.0,0.0,88,0.00,,,0.02,WUHU216DAVISVP2,2013-12-04 16:32:00,
2013-12-04 11:37:00,58.4,54.8,30.04,SE,143,0.0,0.0,88,0.00,,,0.02,WUHU216DAVISVP2,2013-12-04 16:37:00,
2013-12-04 11:42:00,58.7,55.1,30.04,SE,143,0.0,0.0,88,0.00,,,0.02,WUHU216DAVISVP2,2013-12-04 16:42:00,
2013-12-04 11:47:00,58.9,55.3,30.04,SE,143,0.0,0.0,88,0.00,,,0.02,WUHU216DAVISVP2,2013-12-04 16:47:00,
2013-12-04 11:52:00,58.9,55.3,30.03,SE,143,0.0,0.0,88,0.00,,,0.02,WUHU216DAVISVP2,2013-12-04 16:52:00,
2013-12-04 11:57:00,59.0,55.4,30.03,SE,143,0.0,0.0,88,0.00,,,0.02,WUHU216DAVISVP2,2013-12-04 16:57:00,
2013-12-04 12:02:00,59.0,55.4,30.03,SE,143,0.0,0.0,88,0.00,,,0.02,WUHU216DAVISVP2,2013-12-04 17:02:00,
2013-12-04 12:07:00,59.2,55.6,30.03,SE,143,0.0,0.0,88,0.00,,,0.02,WUHU216DAVISVP2,2013-12-04 17:07:00,
2013-12-04 12:12:00,59.3,55.4,30.03,East,97,0.0,0.0,87,0.00,,,0.02,WUHU216DAVISVP2,2013-12-04 17:12:00,
2013-12-04 12:17:00,59.6,56.0,30.03,NE,37,0.0,0.0,88,0.00,,,0.02,WUHU216DAVISVP2,2013-12-04 17:17:00,
2013-12-04 12:22:00,59.8,55.9,30.02,NE,35,0.0,0.0,87,0.00,,,0.02,WUHU216DAVISVP2,2013-12-04 17:22:00,
2013-12-04 12:27:00,59.9,56.0,30.02,NNE,21,0.0,0.0,87,0.00,,,0.02,WUHU216DAVISVP2,2013-12-04 17:27:00,
2013-12-04 12:32:00,60.1,56.2,30.02,NNE,21,0.0,0.0,87,0.00,,,0.02,WUHU216DAVISVP2,2013-12-04 17:32:00,
2013-12-04 12:37:00,60.4,56.2,30.02,NNE,21,0.0,0.0,86,0.00,,,0.02,WUHU216DAVISVP2,2013-12-04 17:37:00,
2013-12-04 12:42:00,60.7,56.5,30.02,NNE,21,0.0,0.0,86,0.00,,,0.02,WUHU216DAVISVP2,2013-12-04 17:42:00,
2013-12-04 12:47:00,60.7,56.5,30.02,NNE,23,0.0,0.0,86,0.00,,,0.02,WUHU216DAVISVP2,2013-12-04 17:47:00,
2013-12-04 12:52:00,60.9,56.7,30.01,NNE,23,0.0,0.0,86,0.00,,,0.02,WUHU216DAVISVP2,2013-12-04 17:52:00,
2013-12-04 12:57:00,60.9,56.4,30.01,NNE,23,0.0,0.0,85,0.00,,,0.02,WUHU216DAVISVP2,2013-12-04 17:57:00,
2013-12-04 13:03:00,61.2,56.7,30.01,NNW,339,0.0,0.0,85,0.00,,,0.02,WUHU216DAVISVP2,2013-12-04 18:03:00,
2013-12-04 13:08:00,61.2,56.7,30.00,North,0,0.0,0.0,85,0.00,,,0.02,WUHU216DAVISVP2,2013-12-04 18:08:00,
2013-12-04 13:13:00,61.0,56.5,30.00,North,0,0.0,0.0,85,0.00,,,0.02,WUHU216DAVISVP2,2013-12-04 18:13:00,
2013-12-04 13:18:00,61.2,56.7,30.00,North,0,0.0,0.0,85,0.00,,,0.02,WUHU216DAVISVP2,2013-12-04 18:18:00,
2013-12-04 13:23:00,61.2,56.3,30.00,North,0,0.0,0.0,84,0.00,,,0.02,WUHU216DAVISVP2,2013-12-04 18:23:00,
2013-12-04 13:28:00,61.2,56.7,30.00,North,0,0.0,0.0,85,0.00,,,0.02,WUHU216DAVISVP2,2013-12-04 18:28:00,
2013-12-04 13:33:00,61.2,56.3,29.99,North,0,0.0,0.0,84,0.00,,,0.02,WUHU216DAVISVP2,2013-12-04 18:33:00,
2013-12-04 13:38:00,61.0,56.1,29.99,North,0,0.0,0.0,84,0.00,,,0.02,WUHU216DAVISVP2,2013-12-04 18:38:00,
2013-12-04 13:43:00,61.2,56.3,29.99,North,0,0.0,0.0,84,0.00,,,0.02,WUHU216DAVISVP2,2013-12-04 18:43:00,
2013-12-04 13:48:00,61.2,56.3,29.99,North,0,0.0,0.0,84,0.00,,,0.02,WUHU216DAVISVP2,2013-12-04 18:48:00,
2013-12-04 13:53:00,61.2,56.3,29.99,North,0,0.0,0.0,84,0.00,,,0.02,WUHU216DAVISVP2,2013-12-04 18:53:00,
2013-12-04 13:58:00,61.2,56.3,29.99,North,0,0.0,0.0,84,0.00,,,0.02,WUHU216DAVISVP2,2013-12-04 18:58:00,
2013-12-04 14:03:00,61.2,56.3,29.98,North,0,0.0,0.0,84,0.00,,,0.02,WUHU216DAVISVP2,2013-12-04 19:03:00,
2013-12-04 14:08:00,61.5,56.3,29.98,NNE,17,0.0,0.0,83,0.00,,,0.02,WUHU216DAVISVP2,2013-12-04 19:08:00,
2013-12-04 14:13:00,61.5,56.6,29.98,NNE,17,0.0,0.0,84,0.00,,,0.02,WUHU216DAVISVP2,2013-12-04 19:13:00,
2013-12-04 14:18:00,61.5,56.6,29.97,NNE,18,0.0,0.0,84,0.00,,,0.02,WUHU216DAVISVP2,2013-12-04 19:18:00,
2013-12-04 14:23:00,61.5,56.3,29.97,NNE,18,0.0,0.0,83,0.00,,,0.02,WUHU216DAVISVP2,2013-12-04 19:23:00,
2013-12-04 14:28:00,61.6,56.4,29.97,NNE,18,0.0,0.0,83,0.00,,,0.02,WUHU216DAVISVP2,2013-12-04 19:28:00,
2013-12-04 14:33:00,61.6,56.4,29.97,NNE,18,0.0,0.0,83,0.00,,,0.02,WUHU216DAVISVP2,2013-12-04 19:33:00,
2013-12-04 14:38:00,61.6,56.4,29.98,NNE,18,0.0,0.0,83,0.00,,,0.02,WUHU216DAVISVP2,2013-12-04 19:38:00,
2013-12-04 14:43:00,61.6,56.4,29.98,NNE,18,0.0,0.0,83,0.00,,,0.02,WUHU216DAVISVP2,2013-12-04 19:43:00,
2013-12-04 14:48:00,61.5,56.3,29.98,NNE,18,0.0,0.0,83,0.00,,,0.02,WUHU216DAVISVP2,2013-12-04 19:48:00,
2013-12-04 14:53:00,61.5,56.3,29.98,NNE,18,0.0,0.0,83,0.00,,,0.02,WUHU216DAVISVP2,2013-12-04 19:53:00,
2013-12-04 14:58:00,61.6,56.4,29.98,NNE,18,0.0,0.0,83,0.00,,,0.02,WUHU216DAVISVP2,2013-12-04 19:58:00,
2013-12-04 15:03:00,61.6,56.4,29.98,SE,143,0.0,0.0,83,0.00,,,0.02,WUHU216DAVISVP2,2013-12-04 20:03:00,
2013-12-04 15:08:00,61.6,56.4,29.98,SE,143,0.0,0.0,83,0.00,,,0.02,WUHU216DAVISVP2,2013-12-04 20:08:00,
2013-12-04 15:13:00,61.6,56.1,29.98,SE,143,0.0,0.0,82,0.00,,,0.02,WUHU216DAVISVP2,2013-12-04 20:13:00,
2013-12-04 15:19:00,61.6,56.1,29.99,SE,143,0.0,0.0,82,0.00,,,0.02,WUHU216DAVISVP2,2013-12-04 20:19:00,
2013-12-04 15:24:00,61.6,56.1,29.99,SE,143,0.0,0.0,82,0.00,,,0.02,WUHU216DAVISVP2,2013-12-04 20:24:00,
2013-12-04 15:29:00,61.6,56.1,29.99,SE,143,0.0,0.0,82,0.00,,,0.02,WUHU216DAVISVP2,2013-12-04 20:29:00,
2013-12-04 15:34:00,61.6,56.1,29.98,SE,143,0.0,0.0,82,0.00,,,0.02,WUHU216DAVISVP2,2013-12-04 20:34:00,
2013-12-04 15:39:00,61.8,56.3,29.98,SE,143,0.0,0.0,82,0.00,,,0.02,WUHU216DAVISVP2,2013-12-04 20:39:00,
2013-12-04 15:44:00,61.8,56.3,29.98,SE,143,0.0,0.0,82,0.00,,,0.02,WUHU216DAVISVP2,2013-12-04 20:44:00,
2013-12-04 15:49:00,61.8,56.3,29.99,SE,143,0.0,0.0,82,0.00,,,0.02,WUHU216DAVISVP2,2013-12-04 20:49:00,
2013-12-04 15:54:00,61.8,56.3,29.99,SE,143,0.0,0.0,82,0.00,,,0.02,WUHU216DAVISVP2,2013-12-04 20:54:00,
2013-12-04 15:59:00,61.8,56.6,29.99,SE,143,0.0,0.0,83,0.00,,,0.02,WUHU216DAVISVP2,2013-12-04 20:59:00,
2013-12-04 16:04:00,61.6,56.4,29.99,SE,143,0.0,0.0,83,0.00,,,0.02,WUHU216DAVISVP2,2013-12-04 21:04:00,
2013-12-04 16:09:00,61.8,56.6,29.99,SE,143,0.0,0.0,83,0.00,,,0.02,WUHU216DAVISVP2,2013-12-04 21:09:00,
2013-12-04 16:14:00,61.8,56.6,29.99,SE,143,0.0,0.0,83,0.00,,,0.02,WUHU216DAVISVP2,2013-12-04 21:14:00,
2013-12-04 16:19:00,61.8,56.6,30.00,SE,143,0.0,0.0,83,0.00,,,0.02,WUHU216DAVISVP2,2013-12-04 21:19:00,
2013-12-04 16:24:00,61.6,56.4,30.00,SE,143,0.0,0.0,83,0.00,,,0.02,WUHU216DAVISVP2,2013-12-04 21:24:00,
2013-12-04 16:29:00,61.6,56.4,30.00,SE,143,0.0,0.0,83,0.00,,,0.02,WUHU216DAVISVP2,2013-12-04 21:29:00,
2013-12-04 16:34:00,61.5,56.0,30.00,SE,143,0.0,0.0,82,0.00,,,0.02,WUHU216DAVISVP2,2013-12-04 21:34:00,
2013-12-04 16:39:00,61.5,56.3,30.00,SE,143,0.0,0.0,83,0.00,,,0.02,WUHU216DAVISVP2,2013-12-04 21:39:00,
2013-12-04 16:44:00,61.3,56.1,30.00,SE,143,0.0,0.0,83,0.00,,,0.02,WUHU216DAVISVP2,2013-12-04 21:44:00,
2013-12-04 16:49:00,61.2,56.0,30.00,SE,143,0.0,0.0,83,0.00,,,0.02,WUHU216DAVISVP2,2013-12-04 21:49:00,
2013-12-04 16:54:00,61.2,56.0,30.00,SE,143,0.0,0.0,83,0.00,,,0.02,WUHU216DAVISVP2,2013-12-04 21:54:00,
2013-12-04 16:59:00,61.0,55.8,30.00,SE,143,0.0,0.0,83,0.00,,,0.02,WUHU216DAVISVP2,2013-12-04 21:59:00,
2013-12-04 17:04:00,60.9,55.7,30.00,SE,143,0.0,0.0,83,0.00,,,0.02,WUHU216DAVISVP2,2013-12-04 22:04:00,
2013-12-04 17:09:00,60.7,55.5,30.00,SE,143,0.0,0.0,83,0.00,,,0.02,WUHU216DAVISVP2,2013-12-04 22:09:00,
2013-12-04 17:14:00,60.5,55.3,30.00,SE,143,0.0,0.0,83,0.00,,,0.02,WUHU216DAVISVP2,2013-12-04 22:14:00,
2013-12-04 17:19:00,60.2,55.0,30.01,SE,143,0.0,0.0,83,0.00,,,0.02,WUHU216DAVISVP2,2013-12-04 22:19:00,
2013-12-04 17:24:00,60.2,55.0,30.01,SE,143,0.0,0.0,83,0.00,,,0.02,WUHU216DAVISVP2,2013-12-04 22:24:00,
2013-12-04 17:29:00,60.1,54.9,30.01,SE,143,0.0,0.0,83,0.00,,,0.02,WUHU216DAVISVP2,2013-12-04 22:29:00,
2013-12-04 17:34:00,59.9,54.8,30.01,SE,143,0.0,0.0,83,0.00,,,0.02,WUHU216DAVISVP2,2013-12-04 22:34:00,
2013-12-04 17:39:00,59.9,54.8,30.01,SE,143,0.0,0.0,83,0.00,,,0.02,WUHU216DAVISVP2,2013-12-04 22:39:00,
2013-12-04 17:44:00,59.8,55.0,30.01,SE,143,0.0,0.0,84,0.00,,,0.02,WUHU216DAVISVP2,2013-12-04 22:44:00,
2013-12-04 17:49:00,59.8,55.0,30.02,SE,143,0.0,0.0,84,0.00,,,0.02,WUHU216DAVISVP2,2013-12-04 22:49:00,
2013-12-04 17:54:00,59.6,54.8,30.02,SE,143,0.0,0.0,84,0.00,,,0.02,WUHU216DAVISVP2,2013-12-04 22:54:00,
2013-12-04 17:59:00,59.6,54.8,30.02,SE,143,0.0,0.0,84,0.00,,,0.02,WUHU216DAVISVP2,2013-12-04 22:59:00,
2013-12-04 18:04:00,59.5,54.7,30.02,SE,143,0.0,0.0,84,0.00,,,0.02,WUHU216DAVISVP2,2013-12-04 23:04:00,
2013-12-04 18:09:00,59.5,54.7,30.02,SE,143,0.0,0.0,84,0.00,,,0.02,WUHU216DAVISVP2,2013-12-04 23:09:00,
2013-12-04 18:14:00,59.5,55.0,30.02,SE,143,0.0,0.0,85,0.00,,,0.02,WUHU216DAVISVP2,2013-12-04 23:14:00,
2013-12-04 18:19:00,59.5,55.0,30.02,SE,143,0.0,0.0,85,0.00,,,0.02,WUHU216DAVISVP2,2013-12-04 23:19:00,
2013-12-04 18:24:00,59.3,54.8,30.02,SE,143,0.0,0.0,85,0.00,,,0.02,WUHU216DAVISVP2,2013-12-04 23:24:00,
2013-12-04 18:29:00,59.3,54.8,30.02,SE,143,0.0,0.0,85,0.00,,,0.02,WUHU216DAVISVP2,2013-12-04 23:29:00,
2013-12-04 18:36:00,59.2,54.7,30.01,SE,143,0.0,0.0,85,0.00,,,0.02,WUHU216DAVISVP2,2013-12-04 23:36:00,
2013-12-04 18:41:00,59.0,54.5,30.01,SE,143,0.0,0.0,85,0.00,,,0.02,WUHU216DAVISVP2,2013-12-04 23:41:00,
2013-12-04 18:46:00,58.9,54.4,30.01,SE,143,0.0,0.0,85,0.00,,,0.02,WUHU216DAVISVP2,2013-12-04 23:46:00,
2013-12-04 18:51:00,58.9,54.4,30.02,SE,143,0.0,0.0,85,0.00,,,0.00,WUHU216DAVISVP2,2013-12-04 23:51:00,
2013-12-04 18:56:00,58.7,54.2,30.02,SE,143,0.0,0.0,85,0.00,,,0.00,WUHU216DAVISVP2,2013-12-04 23:56:00,
2013-12-04 19:01:00,58.7,54.2,30.02,SE,143,0.0,0.0,85,0.00,,,0.00,WUHU216DAVISVP2,2013-12-05 00:01:00,
2013-12-04 19:06:00,58.6,54.1,30.02,SE,143,0.0,0.0,85,0.00,,,0.00,WUHU216DAVISVP2,2013-12-05 00:06:00,
2013-12-04 19:11:00,58.6,54.1,30.02,SE,143,0.0,0.0,85,0.00,,,0.00,WUHU216DAVISVP2,2013-12-05 00:11:00,
2013-12-04 19:16:00,58.4,53.9,30.02,SE,143,0.0,0.0,85,0.00,,,0.00,WUHU216DAVISVP2,2013-12-05 00:16:00,
2013-12-04 19:21:00,58.4,53.9,30.03,SE,143,0.0,0.0,85,0.00,,,0.00,WUHU216DAVISVP2,2013-12-05 00:21:00,
2013-12-04 19:26:00,58.4,54.2,30.03,SE,143,0.0,0.0,86,0.00,,,0.00,WUHU216DAVISVP2,2013-12-05 00:26:00,
2013-12-04 19:31:00,58.4,54.2,30.03,SE,143,0.0,0.0,86,0.00,,,0.00,WUHU216DAVISVP2,2013-12-05 00:31:00,
2013-12-04 19:36:00,58.6,54.4,30.03,SE,143,0.0,0.0,86,0.00,,,0.00,WUHU216DAVISVP2,2013-12-05 00:36:00,
2013-12-04 19:41:00,58.6,54.4,30.03,SE,143,0.0,0.0,86,0.00,,,0.00,WUHU216DAVISVP2,2013-12-05 00:41:00,
2013-12-04 19:46:00,58.6,54.4,30.03,SE,143,0.0,0.0,86,0.00,,,0.00,WUHU216DAVISVP2,2013-12-05 00:46:00,
2013-12-04 19:51:00,58.6,54.4,30.03,SE,143,0.0,0.0,86,0.00,,,0.00,WUHU216DAVISVP2,2013-12-05 00:51:00,
2013-12-04 19:56:00,58.6,54.4,30.03,SE,143,0.0,0.0,86,0.00,,,0.00,WUHU216DAVISVP2,2013-12-05 00:56:00,
2013-12-04 20:01:00,58.6,54.4,30.03,SE,143,0.0,0.0,86,0.00,,,0.00,WUHU216DAVISVP2,2013-12-05 01:01:00,
2013-12-04 20:06:00,58.6,54.4,30.04,SE,143,0.0,0.0,86,0.00,,,0.00,WUHU216DAVISVP2,2013-12-05 01:06:00,
2013-12-04 20:11:00,58.7,54.5,30.04,SE,143,0.0,0.0,86,0.00,,,0.00,WUHU216DAVISVP2,2013-12-05 01:11:00,
2013-12-04 20:16:00,58.9,55.0,30.04,ESE,102,0.0,0.0,87,0.00,,,0.00,WUHU216DAVISVP2,2013-12-05 01:16:00,
2013-12-04 20:21:00,59.2,55.3,30.03,ESE,102,0.0,0.0,87,0.00,,,0.00,WUHU216DAVISVP2,2013-12-05 01:21:00,
2013-12-04 20:26:00,59.2,55.3,30.03,ESE,102,0.0,0.0,87,0.00,,,0.00,WUHU216DAVISVP2,2013-12-05 01:26:00,
2013-12-04 20:31:00,59.2,55.3,30.03,ESE,102,0.0,0.0,87,0.00,,,0.00,WUHU216DAVISVP2,2013-12-05 01:31:00,
2013-12-04 20:36:00,58.9,55.0,30.03,ESE,102,0.0,0.0,87,0.00,,,0.00,WUHU216DAVISVP2,2013-12-05 01:36:00,
2013-12-04 20:41:00,58.9,55.0,30.03,ESE,102,0.0,0.0,87,0.00,,,0.00,WUHU216DAVISVP2,2013-12-05 01:41:00,
2013-12-04 20:46:00,58.6,54.7,30.03,ESE,102,0.0,0.0,87,0.00,,,0.00,WUHU216DAVISVP2,2013-12-05 01:46:00,
2013-12-04 20:51:00,58.3,54.4,30.02,ESE,102,0.0,0.0,87,0.00,,,0.00,WUHU216DAVISVP2,2013-12-05 01:51:00,
2013-12-04 20:56:00,58.1,54.2,30.02,ESE,102,0.0,0.0,87,0.00,,,0.00,WUHU216DAVISVP2,2013-12-05 01:56:00,
2013-12-04 21:01:00,57.8,53.9,30.02,ESE,102,0.0,0.0,87,0.00,,,0.00,WUHU216DAVISVP2,2013-12-05 02:01:00,
2013-12-04 21:06:00,57.6,53.7,30.02,ESE,102,0.0,0.0,87,0.00,,,0.00,WUHU216DAVISVP2,2013-12-05 02:06:00,
2013-12-04 21:11:00,57.3,53.5,30.02,ESE,102,0.0,0.0,87,0.00,,,0.00,WUHU216DAVISVP2,2013-12-05 02:11:00,
2013-12-04 21:16:00,57.0,53.2,30.02,ESE,102,0.0,0.0,87,0.00,,,0.00,WUHU216DAVISVP2,2013-12-05 02:16:00,
2013-12-04 21:21:00,56.7,52.9,30.02,ESE,102,0.0,0.0,87,0.00,,,0.00,WUHU216DAVISVP2,2013-12-05 02:21:00,
2013-12-04 21:26:00,56.5,52.7,30.02,ESE,102,0.0,0.0,87,0.00,,,0.00,WUHU216DAVISVP2,2013-12-05 02:26:00,
2013-12-04 21:31:00,56.3,52.8,30.02,ESE,102,0.0,0.0,88,0.00,,,0.00,WUHU216DAVISVP2,2013-12-05 02:31:00,
2013-12-04 21:36:00,56.0,52.5,30.03,ESE,102,0.0,0.0,88,0.00,,,0.00,WUHU216DAVISVP2,2013-12-05 02:36:00,
2013-12-04 21:41:00,55.9,52.4,30.03,ESE,102,0.0,0.0,88,0.00,,,0.00,WUHU216DAVISVP2,2013-12-05 02:41:00,
2013-12-04 21:46:00,55.7,52.2,30.03,ESE,102,0.0,0.0,88,0.00,,,0.00,WUHU216DAVISVP2,2013-12-05 02:46:00,
2013-12-04 21:51:00,55.4,51.9,30.03,ESE,102,0.0,0.0,88,0.00,,,0.00,WUHU216DAVISVP2,2013-12-05 02:51:00,
2013-12-04 21:56:00,55.3,51.8,30.03,ESE,102,0.0,0.0,88,0.00,,,0.00,WUHU216DAVISVP2,2013-12-05 02:56:00,
2013-12-04 22:01:00,55.1,51.6,30.03,ESE,102,0.0,0.0,88,0.00,,,0.00,WUHU216DAVISVP2,2013-12-05 03:01:00,
2013-12-04 22:06:00,54.8,51.3,30.03,ESE,102,0.0,0.0,88,0.00,,,0.00,WUHU216DAVISVP2,2013-12-05 03:06:00,
2013-12-04 22:11:00,54.7,51.2,30.03,ESE,102,0.0,0.0,88,0.00,,,0.00,WUHU216DAVISVP2,2013-12-05 03:11:00,
2013-12-04 22:16:00,54.5,51.0,30.03,ESE,102,0.0,0.0,88,0.00,,,0.00,WUHU216DAVISVP2,2013-12-05 03:16:00,
2013-12-04 22:21:00,54.5,51.3,30.04,ESE,102,0.0,0.0,89,0.00,,,0.00,WUHU216DAVISVP2,2013-12-05 03:21:00,
2013-12-04 22:27:00,54.7,51.2,30.04,ESE,102,0.0,0.0,88,0.00,,,0.00,WUHU216DAVISVP2,2013-12-05 03:27:00,
2013-12-04 22:32:00,54.5,51.0,30.04,ESE,102,0.0,0.0,88,0.00,,,0.00,WUHU216DAVISVP2,2013-12-05 03:32:00,
2013-12-04 22:37:00,54.5,51.3,30.05,ESE,102,0.0,0.0,89,0.00,,,0.00,WUHU216DAVISVP2,2013-12-05 03:37:00,
2013-12-04 22:42:00,54.4,51.2,30.05,ESE,102,0.0,0.0,89,0.00,,,0.00,WUHU216DAVISVP2,2013-12-05 03:42:00,
2013-12-04 22:47:00,54.2,51.0,30.05,ESE,102,0.0,0.0,89,0.00,,,0.00,WUHU216DAVISVP2,2013-12-05 03:47:00,
2013-12-04 22:52:00,54.1,50.9,30.05,ESE,102,0.0,0.0,89,0.00,,,0.00,WUHU216DAVISVP2,2013-12-05 03:52:00,
2013-12-04 22:57:00,54.1,50.9,30.05,ESE,102,0.0,0.0,89,0.00,,,0.00,WUHU216DAVISVP2,2013-12-05 03:57:00,
2013-12-04 23:02:00,54.1,50.9,30.05,ESE,102,0.0,0.0,89,0.00,,,0.00,WUHU216DAVISVP2,2013-12-05 04:02:00,
2013-12-04 23:07:00,54.1,50.9,30.05,ESE,102,0.0,0.0,89,0.00,,,0.00,WUHU216DAVISVP2,2013-12-05 04:07:00,
2013-12-04 23:12:00,54.4,51.2,30.05,ESE,102,0.0,0.0,89,0.00,,,0.00,WUHU216DAVISVP2,2013-12-05 04:12:00,
2013-12-04 23:17:00,54.4,51.2,30.05,ESE,102,0.0,0.0,89,0.00,,,0.00,WUHU216DAVISVP2,2013-12-05 04:17:00,
2013-12-04 23:22:00,54.5,51.3,30.05,ESE,102,0.0,0.0,89,0.00,,,0.00,WUHU216DAVISVP2,2013-12-05 04:22:00,
2013-12-04 23:27:00,54.7,51.5,30.05,ESE,102,0.0,0.0,89,0.00,,,0.00,WUHU216DAVISVP2,2013-12-05 04:27:00,
2013-12-04 23:32:00,54.8,51.9,30.05,ESE,102,0.0,0.0,90,0.00,,,0.00,WUHU216DAVISVP2,2013-12-05 04:32:00,
2013-12-04 23:38:00,55.0,52.1,30.05,ESE,102,0.0,0.0,90,0.00,,,0.00,WUHU216DAVISVP2,2013-12-05 04:38:00,
2013-12-04 23:42:00,55.3,52.4,30.05,ESE,102,0.0,0.0,90,0.00,,,0.00,WUHU216DAVISVP2,2013-12-05 04:42:00,
2013-12-04 23:47:00,55.4,52.5,30.05,ESE,102,0.0,0.0,90,0.00,,,0.00,WUHU216DAVISVP2,2013-12-05 04:47:00,
2013-12-04 23:52:00,55.9,53.0,30.05,ESE,102,0.0,0.0,90,0.00,,,0.00,WUHU216DAVISVP2,2013-12-05 04:52:00,
2013-12-04 23:57:00,56.2,53.3,30.05,ESE,102,0.0,0.0,90,0.00,,,0.00,WUHU216DAVISVP2,2013-12-05 04:57:00,